Nearby METAR Reports

 

KMTN - Baltimore/Martin, Maryland, USA
Distance from station: SSE 8mi, 13km
Updated: Wed, 01-Oct-2014 7:45pm EDT
Few Clouds
Few Clouds
 Wind from calm
Wind: Calm
Temperature: 66°F , 19°C
Dew Point: 64°F , 18°C
Humidity: 94%
Barometer: 30.05 inHg , 1017.6 hPa
Clouds: Few Clouds
Visibility: 10 miles , 16 km
Cloud details: Few Clouds 7000 ft
2014/10/01 23:45 KMTN 012345Z 00000KT 10SM FEW070 19/18 A3005
KDMH - Baltimore/Dwntwn, Maryland, USA
Distance from station: SW 12mi, 19km
Updated: Wed, 01-Oct-2014 7:54pm EDT

 
Temperature: 70°F , 21°C
Dew Point: 57°F , 14°C
Humidity: 64%
Barometer: 30.04 inHg , 1017.3 hPa
2014/10/01 23:54 KDMH 012354Z AUTO 21/14 A3004 RMK AO1 SLP170 T02110144 10228 20211 53008
 
KBWI - Balto/Wash Intl, Maryland, USA
Distance from station: SSW 20mi, 33km
Updated: Wed, 01-Oct-2014 7:54pm EDT
Partly cloudy
Partly cloudy
 Wind from NNW
Wind: NNW 3 mph , 6 km/h
Temperature: 66°F , 19°C
Dew Point: 59°F , 15°C
Humidity: 78%
Barometer: 30.03 inHg , 1016.9 hPa
Clouds: Partly cloudy
Visibility: 10 miles , 16 km
Cloud details: Few Clouds 3000 ft
Partly cloudy 8500 ft
2014/10/01 23:54 KBWI 012354Z 34003KT 10SM FEW030 SCT085 19/15 A3003 RMK AO2 SLP168 T01940150 10233 20194 53009
KDMW - Carroll Cnty, Maryland, USA
Distance from station: WNW 30mi, 48km
Updated: Wed, 01-Oct-2014 8:10pm EDT
Clear
Clear
 Wind from calm
Wind: Calm
Temperature: 63°F , 17°C
Dew Point: 57°F , 14°C
Humidity: 83%
Clouds: Clear
Visibility: 7 miles , 11 km
2014/10/02 00:10 KDMW 020010Z AUTO 00000KT 7SM CLR 17/14 A30 RMK AO2
 
KNAK - Annapolis/Naval, Maryland, USA
Distance from station: S 30mi, 48km
Updated: Wed, 01-Oct-2014 7:54pm EDT
Clear
Clear
 Wind from calm
Wind: Calm
Temperature: 66°F , 19°C
Dew Point: 63°F , 17°C
Humidity: 88%
Barometer: 30.03 inHg , 1016.9 hPa
Clouds: Clear
Visibility: 10 miles , 16 km
2014/10/01 23:54 KNAK 012354Z AUTO 00000KT 10SM CLR 19/17 A3003 RMK AO2 SLP169 T01940167 10228 20194 53007
KW29 - Stevensville, Maryland, USA
Distance from station: SSE 31mi, 50km
Updated: Wed, 01-Oct-2014 8:13pm EDT

 Wind from calm
Wind: Calm
Temperature: 66°F , 19°C
Dew Point: 61°F , 16°C
Humidity: 83%
Barometer: 30.03 inHg , 1016.9 hPa
Visibility: 10 miles , 16 km
2014/10/02 00:13 KW29 020013Z AUTO 00000KT 10SM 19/16 A3003 RMK AO1
 
KCGS - College Park, Maryland, USA
Distance from station: SW 38mi, 61km
Updated: Wed, 01-Oct-2014 8:10pm EDT
Clear
Clear
 Wind from calm
Wind: Calm
Temperature: 63°F , 17°C
Dew Point: 63°F , 17°C
Humidity: 100%
Barometer: 30.04 inHg , 1017.3 hPa
Clouds: Clear
Visibility: 10 miles , 16 km
2014/10/02 00:10 KCGS 020010Z AUTO 00000KT 10SM CLR 17/17 A3004 RMK AO1
KGAI - Gaithersburg, Maryland, USA
Distance from station: WSW 40mi, 65km
Updated: Wed, 01-Oct-2014 8:15pm EDT
Clear
Clear
 Wind from calm
Wind: Calm
Temperature: 61°F , 16°C
Dew Point: 57°F , 14°C
Humidity: 88%
Barometer: 30.09 inHg , 1019 hPa
Clouds: Clear
Visibility: 10 miles , 16 km
2014/10/02 00:15 KGAI 020015Z 00000KT 10SM CLR 16/14 A3009 RMK AO1
 
KTHV - York, Pennsylvania, USA
Distance from station: NNW 40mi, 65km
Updated: Wed, 01-Oct-2014 7:53pm EDT
Clear
Clear
 Wind from calm
Wind: Calm
Temperature: 57°F , 14°C
Dew Point: 55°F , 13°C
Humidity: 94%
Barometer: 30.04 inHg , 1017.3 hPa
Clouds: Clear
Visibility: 7 miles , 11 km
2014/10/01 23:53 KTHV 012353Z AUTO 00000KT 7SM CLR 14/13 A3004 RMK AO2 SLP175 T01390133 10217 20139 53006
KFDK - Frederick, Maryland, USA
Distance from station: W 47mi, 75km
Updated: Wed, 01-Oct-2014 7:59pm EDT
Clear
Clear
 Wind from calm
Wind: Calm
Temperature: 64°F , 18°C
Dew Point: 63°F , 17°C
Humidity: 94%
Barometer: 30.08 inHg , 1018.6 hPa
Clouds: Clear
Visibility: 7 miles , 11 km
2014/10/01 23:59 KFDK 012359Z 00000KT 7SM SKC 18/17 A3008
 
KESN - Easton/Newnam, Maryland, USA
Distance from station: SSE 48mi, 78km
Updated: Wed, 01-Oct-2014 7:50pm EDT
Partly cloudy
Partly cloudy
 Wind from calm
Wind: Calm
Temperature: 68°F , 20°C
Dew Point: 63°F , 17°C
Humidity: 83%
Barometer: 30.06 inHg , 1017.9 hPa
Clouds: Partly cloudy
Visibility: 10 miles , 16 km
Cloud details: Partly cloudy 12000 ft
2014/10/01 23:50 KESN 012350Z 00000KT 10SM SCT120 20/17 A3006
KDCA - Washington/Natl, Washington D.c., USA
Distance from station: SW 49mi, 79km
Updated: Wed, 01-Oct-2014 7:52pm EDT
Mostly cloudy
Mostly cloudy
 Wind from E
Wind: E 5 mph , 7 km/h
Temperature: 72°F , 22°C
Dew Point: 61°F , 16°C
Humidity: 69%
Barometer: 30.04 inHg , 1017.3 hPa
Clouds: Mostly cloudy
Visibility: 10 miles , 16 km
Cloud details: Mostly cloudy 3400 ft
2014/10/01 23:52 KDCA 012352Z 10004KT 10SM BKN034 22/16 A3004 RMK AO2 SLP171 T02170156 10250 20217 53010
 
KLNS - Lancaster, Pennsylvania, USA
Distance from station: N 49mi, 79km
Updated: Wed, 01-Oct-2014 7:53pm EDT
Overcast
Overcast
 Wind from WNW
Wind: WNW 5 mph , 7 km/h
Temperature: 64°F , 18°C
Dew Point: 57°F , 14°C
Humidity: 78%
Barometer: 30.04 inHg , 1017.3 hPa
Clouds: Overcast
Visibility: 9 miles , 14 km
Cloud details: Mostly cloudy 4800 ft
Overcast 10000 ft
2014/10/01 23:53 KLNS 012353Z 30004KT 9SM BKN048 OVC100 18/14 A3004 RMK AO2 SLP172 T01830144 10228 20178 53010
KILG - Wilmington, Delaware, USA
Distance from station: ENE 50mi, 81km
Updated: Wed, 01-Oct-2014 7:51pm EDT
Mostly cloudy
Mostly cloudy
 Wind from E
Wind: E 6 mph , 9 km/h
Temperature: 66°F , 19°C
Dew Point: 57°F , 14°C
Humidity: 73%
Barometer: 30.05 inHg , 1017.6 hPa
Clouds: Mostly cloudy
Visibility: 10 miles , 16 km
Cloud details: Mostly cloudy 5000 ft
2014/10/01 23:51 KILG 012351Z 10005KT 10SM BKN050 19/14 A3005 RMK AO2 SLP175 T01940144 10244 20189 51013